NR25 weather

Vidant Multispecialty Clinic Heliport
Belhaven, North Carolina, United States

Public forecast

Using degrees Fahrenheit for public forecast. Weather courtesy of forecast.io.

METAR (pilot weather report)

Closest report is Warren Field, 20.8 nm (38.6 km) W. Retrieved 2019/02/17 22:40 UTC (0 seconds ago):

KOCW 172240Z AUTO 12004KT 10SM OVC018 08/05 A2999 RMK AO2 T00770054

TAF (pilot weather forecast)

Closest forecast is Coastal Carolina Regional Airport, 35.3 nm (65.3 km) SW. Retrieved 2019/02/17 18:24 UTC (4 hours ago):

TAF KEWN 171721Z 1718/1818 02003KT P6SM VCSH OVC050 FM180000 12005KT 6SM -RA OVC015 FM180300 16005KT 6SM -RA OVC003 FM180800 22006KT 6SM -RA OVC007 WS020/22035KT FM181300 24008G13KT P6SM OVC007